createdAt,value
2022-11-03T00:00:08.708Z,55.6
2022-11-03T00:01:04.386Z,55.6
2022-11-03T00:02:04.499Z,55.6
2022-11-03T00:03:04.718Z,55.6
2022-11-03T00:04:04.381Z,55.6
2022-11-03T00:05:04.433Z,55.6
2022-11-03T00:06:04.417Z,55.7
2022-11-03T00:07:04.396Z,55.6
2022-11-03T00:08:04.427Z,55.7
2022-11-03T00:09:04.378Z,55.6
2022-11-03T00:10:04.382Z,55.6
2022-11-03T00:11:04.382Z,55.6
2022-11-03T00:12:04.422Z,55.6
2022-11-03T00:13:04.834Z,55.6
2022-11-03T00:14:04.471Z,55.6
2022-11-03T00:15:04.379Z,55.6
2022-11-03T00:16:04.386Z,55.6
2022-11-03T00:17:04.383Z,55.6
2022-11-03T00:18:04.427Z,55.6
2022-11-03T00:19:04.388Z,55.6
2022-11-03T00:20:04.401Z,55.7
2022-11-03T00:21:04.393Z,55.7
2022-11-03T00:22:04.386Z,55.7
2022-11-03T00:23:04.692Z,55.7
2022-11-03T00:24:04.418Z,55.7
2022-11-03T00:25:04.399Z,55.7
2022-11-03T00:26:04.391Z,55.7
2022-11-03T00:27:04.398Z,55.7
2022-11-03T00:28:04.391Z,55.7
2022-11-03T00:29:04.374Z,55.7
2022-11-03T00:30:04.487Z,55.7
2022-11-03T00:31:04.383Z,55.7
2022-11-03T00:32:04.390Z,55.8
2022-11-03T00:33:04.844Z,55.8
2022-11-03T00:34:04.391Z,55.8
2022-11-03T00:35:04.400Z,55.8
2022-11-03T00:36:04.420Z,55.8
2022-11-03T00:37:04.398Z,55.8
2022-11-03T00:38:04.388Z,55.8
2022-11-03T00:39:04.391Z,55.8
2022-11-03T00:40:04.397Z,55.8
2022-11-03T00:41:04.388Z,55.8
2022-11-03T00:42:04.447Z,55.9
2022-11-03T00:43:04.544Z,55.9
2022-11-03T00:44:04.403Z,55.9
2022-11-03T00:45:04.386Z,55.9
2022-11-03T00:46:04.433Z,55.9
2022-11-03T00:47:04.439Z,55.9
2022-11-03T00:48:04.424Z,56.0
2022-11-03T00:49:04.646Z,56.0
2022-11-03T00:50:04.404Z,56.0
2022-11-03T00:51:04.484Z,56.0
2022-11-03T00:52:04.492Z,56.0
2022-11-03T00:53:04.744Z,56.0
2022-11-03T00:54:04.451Z,56.0
2022-11-03T00:55:04.398Z,56.1
2022-11-03T00:56:04.400Z,56.1
2022-11-03T00:57:04.412Z,56.2
2022-11-03T00:58:04.400Z,56.2
2022-11-03T00:59:04.398Z,56.2
2022-11-03T01:00:04.485Z,56.2
2022-11-03T01:01:04.433Z,56.2
2022-11-03T01:02:04.492Z,56.3
2022-11-03T01:03:04.622Z,56.3
2022-11-03T01:04:04.406Z,56.4
2022-11-03T01:05:04.392Z,56.3
2022-11-03T01:06:04.445Z,56.4
2022-11-03T01:07:04.411Z,56.5
2022-11-03T01:08:04.404Z,56.5
2022-11-03T01:09:04.411Z,56.4
2022-11-03T01:10:05.023Z,56.5
2022-11-03T01:11:04.411Z,56.5
2022-11-03T01:12:04.435Z,56.5
2022-11-03T01:13:04.499Z,56.5
2022-11-03T01:14:04.412Z,56.5
2022-11-03T01:15:04.404Z,56.5
2022-11-03T01:16:04.429Z,56.6
2022-11-03T01:17:04.400Z,56.6
2022-11-03T01:18:04.451Z,56.6
2022-11-03T01:19:04.397Z,56.6
2022-11-03T01:20:04.410Z,56.6
2022-11-03T01:21:04.416Z,56.6
2022-11-03T01:22:07.780Z,56.6
2022-11-03T01:23:04.745Z,56.7
2022-11-03T01:24:04.437Z,56.7
2022-11-03T01:25:04.407Z,56.7
2022-11-03T01:26:04.410Z,56.7
2022-11-03T01:27:04.414Z,56.7
2022-11-03T01:29:04.415Z,56.7
2022-11-03T01:30:04.437Z,56.7
2022-11-03T01:31:04.404Z,56.7
2022-11-03T01:32:04.480Z,56.7
2022-11-03T01:33:04.675Z,56.7
2022-11-03T01:34:04.403Z,56.7
2022-11-03T01:35:04.409Z,56.8
2022-11-03T01:36:04.477Z,56.7
2022-11-03T01:37:04.418Z,56.8
2022-11-03T01:38:04.415Z,56.7
2022-11-03T01:39:05.408Z,56.7
2022-11-03T01:40:04.449Z,56.7
2022-11-03T01:41:04.414Z,56.7
2022-11-03T01:42:04.453Z,56.7
2022-11-03T01:43:04.637Z,56.7
2022-11-03T01:44:04.419Z,56.7
2022-11-03T01:45:04.403Z,56.7
2022-11-03T01:46:04.411Z,56.7
2022-11-03T01:47:04.416Z,56.7
2022-11-03T01:48:39.944Z,56.7
2022-11-03T01:49:04.409Z,57.2
2022-11-03T01:50:04.415Z,56.8
2022-11-03T01:51:04.430Z,56.7
2022-11-03T01:52:04.410Z,56.7
2022-11-03T01:53:04.645Z,56.8
2022-11-03T01:54:04.440Z,56.7
2022-11-03T01:55:04.417Z,56.7
2022-11-03T01:56:04.421Z,56.7
2022-11-03T01:57:04.416Z,56.7
2022-11-03T01:58:04.408Z,56.7
2022-11-03T01:59:04.416Z,56.7
2022-11-03T02:00:04.457Z,56.7
2022-11-03T02:01:04.479Z,56.8
2022-11-03T02:02:04.640Z,56.7
2022-11-03T02:03:04.643Z,56.7
2022-11-03T02:04:04.461Z,56.8
2022-11-03T02:05:04.424Z,56.7
2022-11-03T02:06:04.415Z,56.7
2022-11-03T02:07:04.422Z,56.7
2022-11-03T02:08:04.464Z,56.8
2022-11-03T02:09:04.412Z,56.8
2022-11-03T02:10:04.445Z,56.8
2022-11-03T02:11:04.410Z,56.8
2022-11-03T02:12:04.412Z,56.7
2022-11-03T02:13:04.572Z,56.8
2022-11-03T02:14:04.417Z,56.7
2022-11-03T02:15:04.453Z,56.7
2022-11-03T02:16:04.454Z,56.7
2022-11-03T02:17:04.427Z,56.7
2022-11-03T02:18:04.422Z,56.8
2022-11-03T02:19:04.424Z,56.7
2022-11-03T02:20:04.427Z,56.8
2022-11-03T02:21:04.415Z,56.8
2022-11-03T02:22:04.460Z,56.8
2022-11-03T02:23:04.824Z,56.7
2022-11-03T02:24:04.425Z,56.8
2022-11-03T02:25:04.420Z,56.7
2022-11-03T02:26:04.574Z,56.8
2022-11-03T02:27:04.418Z,56.8
2022-11-03T02:28:04.452Z,56.8
2022-11-03T02:29:04.419Z,56.8
2022-11-03T02:30:04.420Z,56.8
2022-11-03T02:31:04.429Z,56.8
2022-11-03T02:32:04.458Z,56.8
2022-11-03T02:33:04.615Z,56.8
2022-11-03T02:34:04.458Z,56.8
2022-11-03T02:35:04.418Z,56.8
2022-11-03T02:36:04.438Z,56.8
2022-11-03T02:37:04.420Z,56.8
2022-11-03T02:38:04.426Z,56.8
2022-11-03T02:39:04.426Z,56.8
2022-11-03T02:40:04.456Z,56.8
2022-11-03T02:41:04.428Z,56.8
2022-11-03T02:42:04.432Z,56.8
2022-11-03T02:43:04.701Z,56.8
2022-11-03T02:44:04.430Z,56.8
2022-11-03T02:45:04.428Z,56.8
2022-11-03T02:46:04.526Z,56.8
2022-11-03T02:47:04.435Z,56.9
2022-11-03T02:48:04.433Z,56.8
2022-11-03T02:49:04.419Z,56.8
2022-11-03T02:50:04.484Z,56.8
2022-11-03T02:51:04.827Z,56.8
2022-11-03T02:52:04.533Z,56.9
2022-11-03T02:53:05.791Z,56.8
2022-11-03T02:55:36.806Z,58.4
2022-11-03T02:56:04.747Z,57.3
2022-11-03T02:57:04.560Z,57.1
2022-11-03T02:58:04.615Z,57.0
2022-11-03T02:59:04.520Z,56.9
2022-11-03T03:00:04.527Z,56.9
2022-11-03T03:01:04.588Z,56.9
2022-11-03T03:02:04.806Z,56.9
2022-11-03T03:03:04.865Z,56.9
2022-11-03T03:04:04.518Z,56.9
2022-11-03T03:05:04.843Z,56.9
2022-11-03T03:06:04.727Z,56.9
2022-11-03T03:07:04.529Z,56.9
2022-11-03T03:08:04.525Z,56.9
2022-11-03T03:09:04.908Z,56.9
2022-11-03T03:10:04.555Z,56.9
2022-11-03T03:11:04.532Z,56.9
2022-11-03T03:12:04.539Z,56.9
2022-11-03T03:13:04.843Z,57.0
2022-11-03T03:14:04.523Z,56.9
2022-11-03T03:15:04.558Z,56.9
2022-11-03T03:16:04.518Z,56.9
2022-11-03T03:17:05.571Z,56.9
2022-11-03T03:18:04.535Z,56.9
2022-11-03T03:19:04.676Z,57.0
2022-11-03T03:20:04.525Z,57.0
2022-11-03T03:21:04.631Z,57.0
2022-11-03T03:22:04.753Z,56.9
2022-11-03T03:23:08.944Z,56.9
2022-11-03T03:24:04.547Z,57.0
2022-11-03T03:25:04.540Z,57.0
2022-11-03T03:26:04.525Z,57.0
2022-11-03T03:27:04.531Z,57.0
2022-11-03T03:28:04.514Z,56.9
2022-11-03T03:29:04.525Z,56.9
2022-11-03T03:30:04.561Z,56.9
2022-11-03T03:31:04.537Z,56.9
2022-11-03T03:32:04.530Z,56.9
2022-11-03T03:33:05.124Z,56.9
2022-11-03T03:34:16.282Z,56.9
2022-11-03T03:35:04.527Z,57.1
2022-11-03T03:36:04.552Z,57.0
2022-11-03T03:37:04.538Z,57.0
2022-11-03T03:38:04.853Z,57.0
2022-11-03T03:39:04.543Z,57.0
2022-11-03T03:40:04.526Z,57.0
2022-11-03T03:41:10.410Z,56.9
2022-11-03T03:42:04.556Z,57.0
2022-11-03T03:43:04.544Z,57.0
2022-11-03T03:44:04.530Z,56.9
2022-11-03T03:45:04.532Z,57.0
2022-11-03T03:46:04.531Z,56.9
2022-11-03T03:47:04.548Z,56.9
2022-11-03T03:48:04.625Z,56.9
2022-11-03T03:49:04.546Z,56.9
2022-11-03T03:50:04.547Z,56.9
2022-11-03T03:51:04.539Z,57.0
2022-11-03T03:52:04.536Z,57.0
2022-11-03T03:53:04.530Z,57.0
2022-11-03T03:54:04.589Z,56.9
2022-11-03T03:55:04.548Z,56.9
2022-11-03T03:56:04.539Z,57.0
2022-11-03T03:57:04.605Z,57.0
2022-11-03T03:58:04.844Z,57.0
2022-11-03T03:59:04.549Z,57.0
2022-11-03T04:00:04.602Z,57.0
2022-11-03T04:01:04.573Z,57.0
2022-11-03T04:02:04.691Z,57.0
2022-11-03T04:03:04.538Z,57.0
2022-11-03T04:04:04.541Z,57.0
2022-11-03T04:05:04.540Z,57.0
2022-11-03T04:06:04.571Z,57.0
2022-11-03T04:07:04.537Z,57.0
2022-11-03T04:08:04.796Z,57.0
2022-11-03T04:09:04.535Z,57.0
2022-11-03T04:10:04.539Z,57.0
2022-11-03T04:11:04.541Z,57.0
2022-11-03T04:12:04.567Z,57.0
2022-11-03T04:13:04.545Z,57.0
2022-11-03T04:14:04.557Z,57.0
2022-11-03T04:15:04.559Z,57.0
2022-11-03T04:16:04.543Z,57.0
2022-11-03T04:17:04.542Z,57.0
2022-11-03T04:18:04.986Z,57.0
2022-11-03T04:19:04.537Z,57.0
2022-11-03T04:20:04.565Z,57.0
2022-11-03T04:21:04.534Z,57.0
2022-11-03T04:22:04.544Z,57.0
2022-11-03T04:23:04.545Z,57.0
2022-11-03T04:24:04.573Z,57.1
2022-11-03T04:25:04.547Z,57.1
2022-11-03T04:26:04.537Z,57.1
2022-11-03T04:27:04.554Z,57.0
2022-11-03T04:28:04.825Z,57.1
2022-11-03T04:29:04.545Z,57.1
2022-11-03T04:30:04.570Z,57.1
2022-11-03T04:31:04.545Z,57.1
2022-11-03T04:32:04.554Z,57.0
2022-11-03T04:33:04.552Z,57.0
2022-11-03T04:34:04.546Z,57.0
2022-11-03T04:35:04.542Z,57.0
2022-11-03T04:36:04.583Z,57.0
2022-11-03T04:37:04.547Z,57.0
2022-11-03T04:38:04.757Z,57.0
2022-11-03T04:39:04.573Z,57.1
2022-11-03T04:40:04.558Z,57.0
2022-11-03T04:41:04.541Z,57.0
2022-11-03T04:42:04.573Z,57.1
2022-11-03T04:43:04.723Z,57.0
2022-11-03T04:44:04.554Z,57.0
2022-11-03T04:45:04.570Z,57.1
2022-11-03T04:46:04.553Z,57.0
2022-11-03T04:47:04.538Z,57.1
2022-11-03T04:48:04.584Z,57.0
2022-11-03T04:49:04.553Z,57.1
2022-11-03T04:50:04.558Z,57.0
2022-11-03T04:51:04.565Z,57.1
2022-11-03T04:52:04.553Z,57.1
2022-11-03T04:53:04.780Z,57.0
2022-11-03T04:54:04.618Z,57.1
2022-11-03T04:55:04.543Z,57.1
2022-11-03T04:56:07.385Z,57.2
2022-11-03T04:57:04.544Z,57.2
2022-11-03T04:58:04.552Z,57.2
2022-11-03T04:59:04.550Z,57.3
2022-11-03T05:00:04.622Z,57.2
2022-11-03T05:01:04.603Z,57.2
2022-11-03T05:02:04.676Z,57.3
2022-11-03T05:03:04.544Z,57.3
2022-11-03T05:04:04.554Z,57.2
2022-11-03T05:05:04.589Z,57.0
2022-11-03T05:06:04.618Z,57.0
2022-11-03T05:07:04.558Z,56.9
2022-11-03T05:08:04.570Z,56.8
2022-11-03T05:09:04.549Z,56.7
2022-11-03T05:10:04.593Z,56.6
2022-11-03T05:11:04.562Z,56.5
2022-11-03T05:12:04.586Z,56.4
2022-11-03T05:13:04.966Z,56.3
2022-11-03T05:14:04.560Z,56.3
2022-11-03T05:15:04.556Z,56.2
2022-11-03T05:16:04.564Z,56.0
2022-11-03T05:17:04.570Z,56.0
2022-11-03T05:18:04.583Z,55.9
2022-11-03T05:19:04.550Z,55.8
2022-11-03T05:20:04.557Z,55.7
2022-11-03T05:21:04.567Z,55.7
2022-11-03T05:22:04.573Z,55.6
2022-11-03T05:23:04.890Z,55.5
2022-11-03T05:24:04.651Z,55.6
2022-11-03T05:25:04.577Z,55.5
2022-11-03T05:26:04.563Z,55.5
2022-11-03T05:27:04.556Z,55.5
2022-11-03T05:28:04.970Z,55.4
2022-11-03T05:29:04.550Z,55.4
2022-11-03T05:30:04.605Z,55.4
2022-11-03T05:31:04.564Z,55.4
2022-11-03T05:32:04.575Z,55.4
2022-11-03T05:33:04.629Z,55.4
2022-11-03T05:34:11.245Z,55.6
2022-11-03T05:35:03.975Z,55.5
2022-11-03T05:36:04.685Z,55.5
2022-11-03T05:37:03.980Z,55.6
2022-11-03T05:38:04.184Z,55.7
2022-11-03T05:39:03.974Z,55.7
2022-11-03T05:40:03.975Z,55.8
2022-11-03T05:41:03.977Z,55.8
2022-11-03T05:42:04.062Z,55.9
2022-11-03T05:43:06.285Z,55.9
2022-11-03T05:44:05.026Z,56.0
2022-11-03T05:45:04.079Z,56.0
2022-11-03T05:46:04.167Z,56.0
2022-11-03T05:47:07.383Z,56.0
2022-11-03T05:48:04.301Z,56.0
2022-11-03T05:49:03.989Z,56.0
2022-11-03T05:50:03.976Z,56.0
2022-11-03T05:51:03.983Z,56.0
2022-11-03T05:52:03.968Z,56.0
2022-11-03T05:53:03.971Z,56.0
2022-11-03T05:54:04.003Z,56.0
2022-11-03T05:55:03.971Z,56.0
2022-11-03T05:56:03.981Z,55.9
2022-11-03T05:57:03.984Z,55.8
2022-11-03T05:58:04.270Z,55.8
2022-11-03T05:59:03.970Z,55.6
2022-11-03T06:00:04.005Z,55.5
2022-11-03T06:01:03.976Z,55.5
2022-11-03T06:02:04.091Z,55.4
2022-11-03T06:03:03.974Z,55.4
2022-11-03T06:04:03.969Z,55.3
2022-11-03T06:05:03.979Z,55.3
2022-11-03T06:06:04.930Z,55.1
2022-11-03T06:07:03.995Z,55.1
2022-11-03T06:08:04.212Z,55.1
2022-11-03T06:09:03.976Z,55.1
2022-11-03T06:10:03.978Z,55.0
2022-11-03T06:11:04.056Z,55.0
2022-11-03T06:12:03.991Z,54.9
2022-11-03T06:13:04.425Z,54.9
2022-11-03T06:14:04.617Z,54.9
2022-11-03T06:15:04.047Z,54.9
2022-11-03T06:16:03.984Z,54.9
2022-11-03T06:17:03.980Z,54.9
2022-11-03T06:18:03.995Z,54.9
2022-11-03T06:19:03.984Z,55.0
2022-11-03T06:20:04.590Z,55.0
2022-11-03T06:21:03.984Z,55.0
2022-11-03T06:22:03.987Z,55.0
2022-11-03T06:23:04.248Z,55.0
2022-11-03T06:24:03.970Z,55.1
2022-11-03T06:25:03.977Z,55.2
2022-11-03T06:26:04.068Z,55.2
2022-11-03T06:27:03.985Z,55.2
2022-11-03T06:28:03.992Z,55.2
2022-11-03T06:29:03.997Z,55.2
2022-11-03T06:30:03.977Z,55.3
2022-11-03T06:31:03.984Z,55.3
2022-11-03T06:32:04.021Z,55.2
2022-11-03T06:33:04.170Z,55.3
2022-11-03T06:34:04.008Z,55.3
2022-11-03T06:35:03.986Z,55.3
2022-11-03T06:36:03.979Z,55.3
2022-11-03T06:37:03.985Z,55.3
2022-11-03T06:38:04.012Z,55.3
2022-11-03T06:39:04.103Z,55.3
2022-11-03T06:40:03.975Z,55.3
2022-11-03T06:41:03.980Z,55.3
2022-11-03T06:42:03.985Z,55.3
2022-11-03T06:43:04.296Z,55.3
2022-11-03T06:44:04.125Z,55.3
2022-11-03T06:45:04.161Z,55.3
2022-11-03T06:46:04.093Z,55.3
2022-11-03T06:47:04.087Z,55.3
2022-11-03T06:48:03.991Z,55.2
2022-11-03T06:49:03.998Z,55.3
2022-11-03T06:50:04.013Z,55.3
2022-11-03T06:51:03.985Z,55.3
2022-11-03T06:52:03.992Z,55.3
2022-11-03T06:53:04.365Z,55.2
2022-11-03T06:54:04.031Z,55.2
2022-11-03T06:55:04.011Z,55.2
2022-11-03T06:56:03.982Z,55.2
2022-11-03T06:57:04.031Z,55.1
2022-11-03T06:58:03.994Z,55.1
2022-11-03T06:59:03.996Z,55.1
2022-11-03T07:00:32.581Z,55.1
2022-11-03T07:01:04.200Z,55.4
2022-11-03T07:02:04.064Z,55.2
2022-11-03T07:03:04.234Z,55.1
2022-11-03T07:04:04.006Z,55.2
2022-11-03T07:05:03.996Z,55.1
2022-11-03T07:06:04.013Z,55.1
2022-11-03T07:07:03.988Z,55.1
2022-11-03T07:08:03.991Z,55.1
2022-11-03T07:09:04.001Z,55.1
2022-11-03T07:10:03.996Z,55.1
2022-11-03T07:11:04.006Z,55.1
2022-11-03T07:12:04.024Z,55.1
2022-11-03T07:13:07.101Z,55.1
2022-11-03T07:14:03.991Z,55.1
2022-11-03T07:16:04.007Z,55.1
2022-11-03T07:17:04.002Z,55.0
2022-11-03T07:18:04.202Z,55.0
2022-11-03T07:19:04.013Z,55.0
2022-11-03T07:20:04.002Z,55.0
2022-11-03T07:21:04.003Z,55.0
2022-11-03T07:22:03.997Z,55.0
2022-11-03T07:23:03.998Z,55.0
2022-11-03T07:24:04.032Z,55.0
2022-11-03T07:25:03.998Z,55.0
2022-11-03T07:26:04.012Z,55.1
2022-11-03T07:27:03.989Z,55.0
2022-11-03T07:28:04.274Z,55.1
2022-11-03T07:29:03.995Z,55.0
2022-11-03T07:30:04.073Z,55.0
2022-11-03T07:31:04.008Z,55.0
2022-11-03T07:32:04.055Z,55.0
2022-11-03T07:33:03.991Z,55.0
2022-11-03T07:34:03.997Z,55.0
2022-11-03T07:35:04.007Z,55.0
2022-11-03T07:36:15.982Z,55.0
2022-11-03T07:37:04.079Z,55.0
2022-11-03T07:38:04.330Z,54.9
2022-11-03T07:39:05.082Z,54.9
2022-11-03T07:40:04.005Z,54.9
2022-11-03T07:41:04.006Z,54.9
2022-11-03T07:42:04.026Z,54.9
2022-11-03T07:43:04.005Z,54.9
2022-11-03T07:44:04.002Z,54.9
2022-11-03T07:45:04.967Z,54.8
2022-11-03T07:46:04.016Z,54.8
2022-11-03T07:47:04.002Z,54.8
2022-11-03T07:48:04.638Z,54.8
2022-11-03T07:49:04.009Z,54.8
2022-11-03T07:50:04.000Z,54.8
2022-11-03T07:51:04.005Z,54.8
2022-11-03T07:52:04.015Z,54.8
2022-11-03T07:53:03.993Z,54.8
2022-11-03T07:54:04.049Z,54.8
2022-11-03T07:55:04.036Z,54.8
2022-11-03T07:56:04.076Z,54.8
2022-11-03T07:57:04.015Z,54.8
2022-11-03T07:58:04.349Z,54.8
2022-11-03T07:59:04.016Z,54.9
2022-11-03T08:00:07.221Z,54.8
2022-11-03T08:01:04.008Z,54.9
2022-11-03T08:02:04.178Z,54.8
2022-11-03T08:03:04.121Z,54.8
2022-11-03T08:04:04.012Z,54.8
2022-11-03T08:05:04.126Z,54.9
2022-11-03T08:06:06.136Z,54.8
2022-11-03T08:07:04.026Z,54.9
2022-11-03T08:08:04.232Z,54.8
2022-11-03T08:09:05.068Z,54.8
2022-11-03T08:10:04.018Z,54.8
2022-11-03T08:11:04.066Z,54.8
2022-11-03T08:12:04.051Z,54.8
2022-11-03T08:13:04.268Z,54.8
2022-11-03T08:14:04.026Z,54.8
2022-11-03T08:15:04.031Z,54.8
2022-11-03T08:16:04.072Z,54.8
2022-11-03T08:17:04.017Z,54.8
2022-11-03T08:18:04.103Z,54.8
2022-11-03T08:19:04.012Z,54.8
2022-11-03T08:20:04.017Z,54.8
2022-11-03T08:21:04.007Z,54.8
2022-11-03T08:22:04.015Z,54.7
2022-11-03T08:23:24.503Z,54.7
2022-11-03T08:24:04.042Z,54.9
2022-11-03T08:25:04.006Z,54.8
2022-11-03T08:26:04.031Z,54.8
2022-11-03T08:27:04.013Z,54.8
2022-11-03T08:28:04.025Z,54.7
2022-11-03T08:31:01.861Z,57.3
2022-11-03T08:31:12.003Z,56.9
2022-11-03T08:32:04.028Z,55.1
2022-11-03T08:33:04.182Z,55.0
2022-11-03T08:34:04.027Z,54.9
2022-11-03T08:35:04.008Z,54.8
2022-11-03T08:36:04.044Z,54.8
2022-11-03T08:37:04.032Z,54.8
2022-11-03T08:38:04.246Z,54.8
2022-11-03T08:39:04.034Z,54.8
2022-11-03T08:40:04.059Z,54.8
2022-11-03T08:41:04.037Z,54.7
2022-11-03T08:42:04.051Z,54.7
2022-11-03T08:43:04.021Z,54.7
2022-11-03T08:44:04.023Z,54.7
2022-11-03T08:45:04.044Z,54.7
2022-11-03T08:46:15.407Z,54.7
2022-11-03T08:47:04.018Z,54.8
2022-11-03T08:48:04.345Z,54.7
2022-11-03T08:49:04.023Z,54.7
2022-11-03T08:50:04.067Z,54.7
2022-11-03T08:51:04.026Z,54.7
2022-11-03T08:52:04.038Z,54.7
2022-11-03T08:53:04.023Z,54.6
2022-11-03T08:54:04.068Z,54.7
2022-11-03T08:55:04.036Z,54.6
2022-11-03T08:56:04.024Z,54.7
2022-11-03T08:57:04.023Z,54.7
2022-11-03T08:58:05.403Z,54.6
2022-11-03T08:59:04.028Z,54.7
2022-11-03T09:00:04.118Z,54.6
2022-11-03T09:01:04.039Z,54.6
2022-11-03T09:02:04.075Z,54.6
2022-11-03T09:03:04.022Z,54.6
2022-11-03T09:04:04.089Z,54.6
2022-11-03T09:05:04.132Z,54.6
2022-11-03T09:06:04.226Z,54.6
2022-11-03T09:07:04.257Z,54.6
2022-11-03T09:11:12.800Z,56.1
2022-11-03T09:12:04.973Z,54.9
2022-11-03T09:13:04.137Z,54.8
2022-11-03T09:14:03.932Z,54.6
2022-11-03T09:15:03.933Z,54.6
2022-11-03T09:16:10.650Z,54.7
2022-11-03T09:17:11.733Z,54.7
2022-11-03T09:18:04.051Z,54.6
2022-11-03T09:19:03.810Z,54.6
2022-11-03T09:20:04.754Z,54.5
2022-11-03T09:21:03.807Z,54.5
2022-11-03T09:22:03.820Z,54.5
2022-11-03T09:23:03.847Z,54.5
2022-11-03T09:24:03.815Z,54.5
2022-11-03T09:25:03.883Z,54.5
2022-11-03T09:26:03.811Z,54.5
2022-11-03T09:27:03.816Z,54.5
2022-11-03T09:28:03.931Z,54.5
2022-11-03T09:29:03.868Z,54.5
2022-11-03T09:30:13.811Z,54.5
2022-11-03T09:31:03.809Z,54.5
2022-11-03T09:32:03.841Z,54.6
2022-11-03T09:33:03.832Z,54.5
2022-11-03T09:34:03.817Z,54.5
2022-11-03T09:35:03.889Z,54.5
2022-11-03T09:36:03.830Z,54.5
2022-11-03T09:37:03.810Z,54.5
2022-11-03T09:38:03.919Z,54.5
2022-11-03T09:39:03.821Z,54.5
2022-11-03T09:40:03.814Z,54.5
2022-11-03T09:41:09.654Z,54.5
2022-11-03T09:42:10.570Z,54.7
2022-11-03T09:43:04.449Z,54.5
2022-11-03T09:44:04.240Z,54.5
2022-11-03T09:45:04.243Z,54.5
2022-11-03T09:46:04.249Z,54.5
2022-11-03T09:47:04.278Z,54.5
2022-11-03T09:48:04.606Z,54.4
2022-11-03T09:49:04.251Z,54.5
2022-11-03T09:50:04.267Z,54.4
2022-11-03T09:51:04.239Z,54.5
2022-11-03T09:52:04.246Z,54.4
2022-11-03T09:53:04.487Z,54.4
2022-11-03T09:54:04.252Z,54.4
2022-11-03T09:55:04.249Z,54.4
2022-11-03T09:56:04.241Z,54.4
2022-11-03T09:57:04.250Z,54.4
2022-11-03T09:58:04.518Z,54.4
2022-11-03T09:59:04.275Z,54.4
2022-11-03T10:00:04.249Z,54.4
2022-11-03T10:01:04.323Z,54.5
2022-11-03T10:02:04.397Z,54.5
2022-11-03T10:03:05.638Z,54.5
2022-11-03T10:04:04.253Z,54.5
2022-11-03T10:05:09.744Z,54.5
2022-11-03T10:06:04.253Z,54.5
2022-11-03T10:07:04.244Z,54.4
2022-11-03T10:08:04.254Z,54.5
2022-11-03T10:09:04.286Z,54.5
2022-11-03T10:10:04.265Z,54.4
2022-11-03T10:11:04.285Z,54.4
2022-11-03T10:12:04.281Z,54.4
2022-11-03T10:13:04.491Z,54.4
2022-11-03T10:14:04.256Z,54.4
2022-11-03T10:15:04.257Z,54.4
2022-11-03T10:16:04.249Z,54.4
2022-11-03T10:17:04.280Z,54.4
2022-11-03T10:18:04.265Z,54.4
2022-11-03T10:19:04.264Z,54.4
2022-11-03T10:20:04.353Z,54.4
2022-11-03T10:21:04.426Z,54.4
2022-11-03T10:22:04.260Z,54.4
2022-11-03T10:23:04.501Z,54.4
2022-11-03T10:24:04.261Z,54.4
2022-11-03T10:25:04.302Z,54.3
2022-11-03T10:26:04.263Z,54.3
2022-11-03T10:27:04.267Z,54.3
2022-11-03T10:28:04.275Z,54.4
2022-11-03T10:29:04.416Z,54.3
2022-11-03T10:30:04.281Z,54.3
2022-11-03T10:31:12.601Z,54.3
2022-11-03T10:32:04.257Z,54.4
2022-11-03T10:33:04.541Z,54.4
2022-11-03T10:35:51.151Z,55.9
2022-11-03T10:36:04.106Z,55.2
2022-11-03T10:37:03.872Z,54.6
2022-11-03T10:38:03.881Z,54.5
2022-11-03T10:39:03.877Z,54.4
2022-11-03T10:40:06.887Z,54.4
2022-11-03T10:41:03.865Z,54.3
2022-11-03T10:42:03.873Z,54.3
2022-11-03T10:43:04.044Z,54.3
2022-11-03T10:44:03.866Z,54.3
2022-11-03T10:45:04.400Z,54.3
2022-11-03T10:46:03.937Z,54.3
2022-11-03T10:47:03.891Z,54.3
2022-11-03T10:48:03.879Z,54.3
2022-11-03T10:49:03.893Z,54.3
2022-11-03T10:50:03.864Z,54.3
2022-11-03T10:51:03.913Z,54.2
2022-11-03T10:52:03.955Z,54.2
2022-11-03T10:53:04.098Z,54.2
2022-11-03T10:54:03.875Z,54.2
2022-11-03T10:55:03.879Z,54.2
2022-11-03T10:56:10.564Z,54.3
2022-11-03T10:57:04.317Z,54.2
2022-11-03T10:58:04.322Z,54.2
2022-11-03T10:59:04.287Z,54.2
2022-11-03T11:00:04.358Z,54.2
2022-11-03T11:01:04.319Z,54.2
2022-11-03T11:02:04.402Z,54.2
2022-11-03T11:03:04.529Z,54.2
2022-11-03T11:04:04.365Z,54.2
2022-11-03T11:05:04.328Z,54.2
2022-11-03T11:06:04.291Z,54.2
2022-11-03T11:07:04.289Z,54.2
2022-11-03T11:08:04.342Z,54.2
2022-11-03T11:09:04.287Z,54.2
2022-11-03T11:10:04.311Z,54.2
2022-11-03T11:11:04.296Z,54.2
2022-11-03T11:12:04.305Z,54.2
2022-11-03T11:13:04.647Z,54.2
2022-11-03T11:14:05.345Z,54.2
2022-11-03T11:15:04.303Z,54.2
2022-11-03T11:16:05.385Z,54.1
2022-11-03T11:17:04.281Z,54.1
2022-11-03T11:18:04.439Z,54.0
2022-11-03T11:19:04.291Z,54.1
2022-11-03T11:20:04.527Z,54.1
2022-11-03T11:21:04.289Z,54.2
2022-11-03T11:22:04.367Z,54.1
2022-11-03T11:23:04.649Z,54.2
2022-11-03T11:24:04.300Z,54.2
2022-11-03T11:25:04.286Z,54.2
2022-11-03T11:26:04.319Z,54.2
2022-11-03T11:27:04.294Z,54.2
2022-11-03T11:28:04.298Z,54.2
2022-11-03T11:29:04.299Z,54.2
2022-11-03T11:30:04.299Z,54.2
2022-11-03T11:31:04.302Z,54.3
2022-11-03T11:32:04.334Z,54.3
2022-11-03T11:33:04.614Z,54.3
2022-11-03T11:34:04.306Z,54.3
2022-11-03T11:35:04.298Z,54.3
2022-11-03T11:36:04.305Z,54.2
2022-11-03T11:37:04.300Z,54.2
2022-11-03T11:38:04.332Z,54.2
2022-11-03T11:39:04.296Z,54.2
2022-11-03T11:40:04.397Z,54.2
2022-11-03T11:41:04.311Z,54.3
2022-11-03T11:42:04.370Z,54.2
2022-11-03T11:43:04.607Z,54.2
2022-11-03T11:44:04.814Z,54.2
2022-11-03T11:45:05.240Z,54.2
2022-11-03T11:46:04.300Z,54.2
2022-11-03T11:47:04.311Z,54.2
2022-11-03T11:48:04.356Z,54.2
2022-11-03T11:49:04.352Z,54.2
2022-11-03T11:50:04.338Z,54.2
2022-11-03T11:51:04.325Z,54.2
2022-11-03T11:52:04.324Z,54.2
2022-11-03T11:53:04.618Z,54.1
2022-11-03T11:54:17.608Z,54.1
2022-11-03T11:56:13.789Z,54.2
2022-11-03T11:56:17.953Z,56.4
2022-11-03T11:57:04.305Z,54.4
2022-11-03T11:58:04.317Z,54.3
2022-11-03T11:59:04.317Z,54.2
2022-11-03T12:00:04.311Z,54.2
2022-11-03T12:01:04.318Z,54.1
2022-11-03T12:02:04.343Z,54.1
2022-11-03T12:03:04.491Z,54.1
2022-11-03T12:04:04.408Z,54.1
2022-11-03T12:05:04.342Z,54.1
2022-11-03T12:06:04.309Z,54.1
2022-11-03T12:07:04.303Z,54.1
2022-11-03T12:08:04.674Z,54.1
2022-11-03T12:09:04.359Z,54.1
2022-11-03T12:10:04.387Z,54.1
2022-11-03T12:11:04.459Z,54.1
2022-11-03T12:12:08.566Z,54.1
2022-11-03T12:13:04.312Z,54.1
2022-11-03T12:14:04.346Z,54.1
2022-11-03T12:15:04.308Z,54.1
2022-11-03T12:16:04.303Z,54.1
2022-11-03T12:17:04.430Z,54.1
2022-11-03T12:18:04.501Z,54.0
2022-11-03T12:19:04.334Z,54.0
2022-11-03T12:20:04.358Z,54.0
2022-11-03T12:21:04.315Z,54.0
2022-11-03T12:22:04.312Z,54.0
2022-11-03T12:23:04.306Z,54.0
2022-11-03T12:24:04.325Z,54.0
2022-11-03T12:25:04.867Z,54.0
2022-11-03T12:26:04.486Z,54.0
2022-11-03T12:27:04.416Z,54.0
2022-11-03T12:28:04.777Z,54.0
2022-11-03T12:29:04.312Z,54.0
2022-11-03T12:30:04.320Z,54.0
2022-11-03T12:31:04.312Z,54.0
2022-11-03T12:32:04.349Z,54.0
2022-11-03T12:33:04.491Z,54.0
2022-11-03T12:34:04.360Z,54.0
2022-11-03T12:35:04.349Z,54.0
2022-11-03T12:36:04.443Z,54.0
2022-11-03T12:37:04.320Z,54.0
2022-11-03T12:38:05.443Z,53.9
2022-11-03T12:39:04.317Z,54.0
2022-11-03T12:40:04.321Z,53.9
2022-11-03T12:41:04.512Z,53.9
2022-11-03T12:42:04.319Z,53.9
2022-11-03T12:43:04.672Z,53.9
2022-11-03T12:44:04.476Z,53.9
2022-11-03T12:45:04.328Z,53.9
2022-11-03T12:46:04.330Z,53.9
2022-11-03T12:47:04.311Z,53.9
2022-11-03T12:48:04.324Z,53.9
2022-11-03T12:49:04.387Z,53.9
2022-11-03T12:50:30.780Z,54.9
2022-11-03T12:51:11.443Z,54.1
2022-11-03T12:52:07.744Z,54.0
2022-11-03T12:53:05.198Z,54.0
2022-11-03T12:54:04.232Z,54.0
2022-11-03T12:55:04.825Z,54.0
2022-11-03T12:56:04.192Z,54.0
2022-11-03T12:57:04.167Z,54.0
2022-11-03T12:58:04.413Z,54.0
2022-11-03T12:59:04.182Z,53.9
2022-11-03T13:00:04.169Z,53.9
2022-11-03T13:01:04.249Z,53.9
2022-11-03T13:02:04.410Z,53.9
2022-11-03T13:03:04.367Z,53.9
2022-11-03T13:04:04.507Z,53.9
2022-11-03T13:05:04.227Z,53.9
2022-11-03T13:06:04.175Z,53.9
2022-11-03T13:07:05.204Z,53.9
2022-11-03T13:08:04.237Z,53.9
2022-11-03T13:09:04.205Z,53.9
2022-11-03T13:10:04.194Z,53.9
2022-11-03T13:11:04.187Z,53.9
2022-11-03T13:12:04.173Z,53.9
2022-11-03T13:13:04.313Z,53.9
2022-11-03T13:14:04.223Z,53.9
2022-11-03T13:15:04.223Z,53.9
2022-11-03T13:16:04.175Z,53.9
2022-11-03T13:17:04.195Z,53.8
2022-11-03T13:18:13.501Z,53.8
2022-11-03T13:19:04.233Z,53.9
2022-11-03T13:20:04.281Z,53.8
2022-11-03T13:21:04.310Z,53.8
2022-11-03T13:22:04.187Z,53.8
2022-11-03T13:23:07.056Z,53.8
2022-11-03T13:24:04.208Z,53.8
2022-11-03T13:25:04.242Z,53.8
2022-11-03T13:26:04.265Z,53.8